Аэропорт
Международный аэропорт Чингисхан (ZMUB)

 ZMUB / ULN

Mongolia
MN-1
Улан-Батор
 47.84310, 106.76700  / 4364 ft

 ZMUB 182200Z VRB01MPS CAVOK M01/M02 Q1019 NOSIG RMK QFE656.5 90
 TAF ZMUB 181630Z 1818/1924 VRB02MPS 9999 SCT033 TN00/1821Z TX23/1907Z

2020 © VATRUS division (Privacy Policy)